Time;durP1;ratioP1;P1;durP2;ratioP2;P2;SDS_P1;SDS_P2;PMS_P1;PMS_P2;Temp;Humidity;BMP_temperature;BMP_pressure;BME280_temperature;BME280_humidity;BME280_pressure;Samples;Min_cycle;Max_cycle;Signal;HPM_P1;HPM_P2
2021/04/25 00:01:15;;;;;;;9.27;3.70;;;8.60;99.90;;;;;;20896818;28;20106;-77
2021/04/25 00:11:16;;;;;;;12.23;4.30;;;8.60;99.90;;;;;;20879841;28;20033;-77
2021/04/25 00:21:21;;;;;;;13.90;4.70;;;8.50;99.90;;;;;;20863282;28;20079;-78
2021/04/25 00:31:22;;;;;;;9.10;4.68;;;8.50;99.90;;;;;;20867083;28;20037;-77
2021/04/25 00:41:23;;;;;;;10.67;5.17;;;8.60;99.90;;;;;;20867630;28;20053;-78
2021/04/25 00:51:24;;;;;;;11.80;5.27;;;8.40;99.90;;;;;;20854313;28;20029;-78
2021/04/25 01:01:26;;;;;;;11.10;6.30;;;8.10;99.90;;;;;;20875093;28;20032;-78
2021/04/25 01:11:27;;;;;;;16.52;7.07;;;8.00;99.90;;;;;;20911115;22;20069;-77
2021/04/25 01:21:28;;;;;;;13.57;6.13;;;7.70;99.90;;;;;;20844771;28;20026;-77
2021/04/25 01:31:29;;;;;;;11.40;6.37;;;7.40;99.90;;;;;;20807138;28;20059;-78
2021/04/25 01:41:30;;;;;;;11.37;4.93;;;7.20;99.90;;;;;;20806750;28;20033;-77
2021/04/25 01:51:31;;;;;;;14.23;6.40;;;6.90;99.90;;;;;;20824073;28;20033;-77
2021/04/25 02:01:34;;;;;;;16.70;6.53;;;6.40;99.90;;;;;;20823681;28;20080;-77
2021/04/25 02:11:35;;;;;;;9.63;5.63;;;6.20;99.90;;;;;;20823122;28;20075;-77
2021/04/25 02:21:36;;;;;;;20.47;6.43;;;5.90;99.90;;;;;;20805312;28;20048;-77
2021/04/25 02:31:37;;;;;;;9.13;4.47;;;5.80;99.90;;;;;;20835118;28;20021;-76
2021/04/25 02:41:38;;;;;;;17.33;7.00;;;5.90;99.90;;;;;;20836783;28;20025;-77
2021/04/25 02:51:39;;;;;;;15.47;5.50;;;5.60;99.90;;;;;;20836179;28;20103;-77
2021/04/25 03:01:39;;;;;;;17.60;6.73;;;5.50;99.90;;;;;;20817901;28;20041;-77
2021/04/25 03:11:40;;;;;;;17.97;7.17;;;5.20;99.90;;;;;;20834429;28;20029;-77
2021/04/25 03:21:41;;;;;;;10.93;5.07;;;5.00;99.90;;;;;;20834109;28;20435;-77
2021/04/25 03:31:42;;;;;;;12.60;5.13;;;5.10;99.90;;;;;;20833026;28;20040;-77
2021/04/25 03:41:43;;;;;;;11.23;5.20;;;4.80;99.90;;;;;;20831403;28;20685;-76
2021/04/25 03:51:44;;;;;;;12.90;4.87;;;4.80;99.90;;;;;;20831929;28;20025;-77
2021/04/25 04:01:45;;;;;;;13.83;5.73;;;4.50;99.90;;;;;;20830799;28;20547;-77
2021/04/25 04:11:46;;;;;;;13.03;5.63;;;4.30;99.90;;;;;;20829860;28;20463;-76
2021/04/25 04:21:46;;;;;;;10.53;5.20;;;4.40;99.90;;;;;;20811299;28;20044;-77
2021/04/25 04:31:47;;;;;;;15.23;6.10;;;4.10;99.90;;;;;;20828454;28;20778;-76
2021/04/25 04:41:49;;;;;;;14.40;4.80;;;3.90;99.90;;;;;;20888379;28;20144;-77
2021/04/25 04:51:50;;;;;;;9.95;5.05;;;4.00;99.90;;;;;;20909112;28;20045;-77
2021/04/25 05:01:51;;;;;;;9.83;5.60;;;3.80;99.90;;;;;;20908794;28;20108;-77
2021/04/25 05:11:54;;;;;;;20.77;7.00;;;4.10;99.90;;;;;;20873812;28;20037;-77
2021/04/25 05:21:55;;;;;;;13.57;6.45;;;4.40;99.90;;;;;;20907455;28;20033;-78
2021/04/25 05:31:56;;;;;;;22.47;7.13;;;4.80;99.90;;;;;;20889155;28;20032;-77
2021/04/25 05:41:57;;;;;;;14.73;5.33;;;5.50;99.90;;;;;;20872516;28;20033;-78
2021/04/25 05:51:58;;;;;;;13.13;6.20;;;6.20;99.90;;;;;;20871916;28;20035;-77
2021/04/25 06:01:59;;;;;;;23.93;9.17;;;6.90;99.90;;;;;;20912258;28;20108;-78
2021/04/25 06:12:00;;;;;;;19.30;7.03;;;7.50;99.90;;;;;;20921309;28;20116;-78
2021/04/25 06:22:00;;;;;;;12.27;6.03;;;8.10;99.90;;;;;;20903009;28;20510;-77
2021/04/25 06:32:03;;;;;;;14.20;6.80;;;8.60;99.90;;;;;;20920166;28;20115;-77
2021/04/25 06:42:04;;;;;;;15.43;6.57;;;9.30;99.90;;;;;;20901589;28;20037;-78
2021/04/25 06:52:05;;;;;;;15.10;6.00;;;9.70;99.90;;;;;;20910223;28;20390;-76
2021/04/25 07:02:06;;;;;;;14.38;7.15;;;10.70;99.90;;;;;;20895289;28;20104;-76
2021/04/25 07:12:08;;;;;;;12.70;5.93;;;10.90;99.90;;;;;;20889856;22;20538;-75
2021/04/25 07:22:09;;;;;;;15.77;6.80;;;11.50;99.90;;;;;;20909260;28;20528;-75
2021/04/25 07:32:10;;;;;;;13.05;5.30;;;12.40;99.90;;;;;;20891198;28;20030;-73
2021/04/25 07:42:11;;;;;;;16.43;6.20;;;12.40;99.90;;;;;;20835567;28;20025;-74
2021/04/25 07:52:12;;;;;;;13.10;6.33;;;13.30;99.90;;;;;;20870286;28;20028;-76
2021/04/25 08:02:13;;;;;;;15.70;6.40;;;13.80;99.90;;;;;;20831382;28;20105;-77
2021/04/25 08:12:14;;;;;;;14.95;6.40;;;14.40;99.90;;;;;;20806024;28;20495;-76
2021/04/25 08:22:15;;;;;;;14.93;6.78;;;14.30;99.90;;;;;;20829647;28;20033;-76
2021/04/25 08:32:16;;;;;;;16.58;6.35;;;15.80;99.90;;;;;;20809638;28;20040;-76
2021/04/25 08:42:17;;;;;;;13.25;6.15;;;16.80;99.90;;;;;;20808340;28;20095;-76
2021/04/25 08:52:21;;;;;;;13.17;6.73;;;16.20;99.90;;;;;;20802435;28;20041;-76
2021/04/25 09:02:22;;;;;;;13.02;6.28;;;17.10;98.70;;;;;;20804330;28;20056;-76
2021/04/25 09:12:49;;;;;;;15.80;6.55;;;18.20;98.00;;;;;;20806169;28;20419;-75
2021/04/25 09:22:50;;;;;;;11.00;6.15;;;18.30;96.00;;;;;;20800360;28;20077;-75
2021/04/25 09:33:02;;;;;;;12.77;7.10;;;18.40;95.30;;;;;;20805584;28;20029;-76
2021/04/25 09:43:08;;;;;;;12.27;6.43;;;18.30;92.50;;;;;;20821254;28;20087;-76
2021/04/25 09:53:18;;;;;;;13.65;6.57;;;19.30;93.60;;;;;;20821143;28;20399;-75
2021/04/25 10:03:20;;;;;;;10.20;5.90;;;20.70;86.70;;;;;;20818612;28;20064;-76
2021/04/25 10:13:21;;;;;;;;;;;21.30;86.80;;;;;;20800796;28;20506;-76
2021/04/25 10:23:22;;;;;;;11.32;6.03;;;22.10;78.10;;;;;;20855170;28;19920;-76
2021/04/25 10:33:23;;;;;;;12.68;6.40;;;21.60;81.00;;;;;;20833850;28;20025;-76
2021/04/25 10:43:28;;;;;;;17.70;7.53;;;22.00;79.50;;;;;;20815243;28;20048;-74
2021/04/25 10:53:31;;;;;;;10.75;6.88;;;21.90;80.00;;;;;;20814199;28;20091;-79
2021/04/25 11:03:32;;;;;;;16.52;8.15;;;22.70;72.90;;;;;;20835407;28;20034;-76
2021/04/25 11:13:33;;;;;;;13.77;5.80;;;22.50;71.70;;;;;;20812724;28;20037;-76
2021/04/25 11:23:34;;;;;;;12.00;6.37;;;22.10;77.20;;;;;;20796175;28;20030;-76
2021/04/25 11:33:35;;;;;;;7.97;5.20;;;21.70;77.90;;;;;;20793189;28;20507;-77
2021/04/25 11:43:41;;;;;;;13.70;5.90;;;22.90;71.90;;;;;;20809308;28;20025;-76
2021/04/25 11:53:42;;;;;;;10.95;5.53;;;22.00;73.80;;;;;;20871266;28;20121;-78
2021/04/25 12:03:50;;;;;;;9.50;5.43;;;22.10;74.50;;;;;;20832066;28;20040;-80
2021/04/25 12:13:52;;;;;;;10.40;5.18;;;22.10;70.50;;;;;;20847104;28;20030;-78
2021/04/25 12:23:56;;;;;;;11.23;5.43;;;22.60;72.10;;;;;;20866795;28;20038;-77
2021/04/25 12:33:57;;;;;;;8.43;4.97;;;22.50;71.70;;;;;;20843025;28;20024;-79
2021/04/25 12:43:58;;;;;;;13.10;5.15;;;23.00;69.30;;;;;;20795169;28;20037;-80
2021/04/25 12:54:14;;;;;;;14.33;5.40;;;22.30;73.30;;;;;;20813735;28;20617;-79
2021/04/25 13:04:38;;;;;;;12.18;4.75;;;22.40;68.90;;;;;;20815838;28;20676;-79
2021/04/25 13:15:13;;;;;;;12.55;4.60;;;23.70;65.90;;;;;;20839946;28;20053;-80
2021/04/25 13:25:17;;;;;;;9.68;5.40;;;23.70;69.70;;;;;;20877934;28;20041;-79
2021/04/25 13:35:20;;;;;;;10.43;4.70;;;24.10;62.40;;;;;;20904130;28;20438;-77
2021/04/25 13:45:22;;;;;;;10.23;4.90;;;23.50;66.90;;;;;;20863756;28;20144;-79
2021/04/25 13:55:23;;;;;;;9.13;4.43;;;24.40;63.00;;;;;;20821986;28;20029;-79
2021/04/25 14:05:25;;;;;;;7.30;4.22;;;24.90;60.20;;;;;;20824337;28;20037;-79
2021/04/25 14:15:28;;;;;;;10.80;4.47;;;22.50;62.00;;;;;;20821222;28;20040;-80
2021/04/25 14:25:29;;;;;;;7.45;3.97;;;22.60;65.80;;;;;;20889807;28;20122;-79
2021/04/25 14:35:32;;;;;;;8.50;3.20;;;22.30;68.40;;;;;;20900787;28;20040;-78
2021/04/25 14:45:34;;;;;;;8.63;3.97;;;22.60;64.80;;;;;;20861206;28;20696;-78
2021/04/25 14:55:35;;;;;;;8.10;3.83;;;23.50;65.10;;;;;;20796778;28;20558;-76
2021/04/25 15:05:36;;;;;;;8.73;3.33;;;21.10;66.60;;;;;;20813614;28;20430;-77
2021/04/25 15:15:37;;;;;;;6.60;3.87;;;22.30;68.00;;;;;;20793682;28;20037;-77
2021/04/25 15:25:38;;;;;;;9.30;2.73;;;22.40;66.40;;;;;;20812520;28;20065;-77
2021/04/25 15:35:39;;;;;;;5.35;3.45;;;23.10;65.30;;;;;;20807614;28;20037;-77
2021/04/25 15:45:45;;;;;;;8.63;4.40;;;23.30;64.60;;;;;;20808266;28;20559;-77
2021/04/25 15:55:46;;;;;;;9.70;4.95;;;23.40;60.60;;;;;;20787022;28;20619;-77
2021/04/25 16:05:47;;;;;;;8.23;3.77;;;22.60;62.10;;;;;;20789033;28;20567;-77
2021/04/25 16:15:48;;;;;;;10.97;3.23;;;21.40;66.10;;;;;;20807900;28;20068;-77
2021/04/25 16:25:49;;;;;;;7.50;3.47;;;21.10;65.40;;;;;;20805853;28;20040;-77
2021/04/25 16:35:50;;;;;;;6.23;2.70;;;20.90;67.30;;;;;;20805444;28;20144;-76
2021/04/25 16:45:51;;;;;;;10.40;3.07;;;21.20;66.50;;;;;;20804054;28;20034;-77
2021/04/25 16:55:52;;;;;;;8.07;2.97;;;20.40;66.40;;;;;;20804259;28;20120;-77
2021/04/25 17:05:53;;;;;;;7.10;2.57;;;20.00;65.80;;;;;;20806122;28;20120;-73
2021/04/25 17:15:55;;;;;;;7.33;3.07;;;19.50;68.50;;;;;;20801649;28;20568;-73
2021/04/25 17:25:57;;;;;;;5.63;2.37;;;19.10;68.10;;;;;;20839089;28;20092;-78
2021/04/25 17:35:58;;;;;;;;;;;18.90;71.90;;;;;;20802077;28;20037;-78
2021/04/25 17:45:59;;;;;;;3.72;2.50;;;18.40;70.60;;;;;;20805151;28;20272;-78
2021/04/25 17:55:59;;;;;;;5.63;2.90;;;17.90;69.10;;;;;;20823832;28;20029;-77
2021/04/25 18:06:00;;;;;;;4.55;2.10;;;17.40;71.00;;;;;;20833805;28;20055;-78
2021/04/25 18:16:01;;;;;;;5.43;2.60;;;17.00;71.30;;;;;;20791500;28;20099;-76
2021/04/25 18:26:04;;;;;;;6.00;2.17;;;16.60;71.00;;;;;;20817585;28;20045;-76
2021/04/25 18:36:06;;;;;;;4.82;2.33;;;16.30;72.70;;;;;;20822291;28;20033;-75
2021/04/25 18:46:07;;;;;;;6.30;3.28;;;16.10;73.70;;;;;;20807906;28;20127;-77
2021/04/25 18:56:09;;;;;;;5.03;2.90;;;15.90;75.50;;;;;;20819156;28;20667;-76
2021/04/25 19:06:11;;;;;;;;;;;15.20;79.20;;;;;;20804722;28;20490;-76
2021/04/25 19:16:12;;;;;;;4.35;2.88;;;14.80;79.50;;;;;;20801947;28;19924;-77
2021/04/25 19:26:14;;;;;;;5.20;2.63;;;14.60;77.90;;;;;;20827357;28;20027;-77
2021/04/25 19:36:16;;;;;;;4.63;2.20;;;14.40;77.50;;;;;;20823177;28;20035;-76
2021/04/25 19:46:17;;;;;;;7.05;2.67;;;14.10;78.30;;;;;;20822923;28;20083;-77
2021/04/25 19:56:18;;;;;;;3.58;2.25;;;14.00;76.00;;;;;;20818503;28;20072;-76
2021/04/25 20:06:19;;;;;;;5.93;2.50;;;13.90;76.20;;;;;;20806219;28;20053;-78
2021/04/25 20:16:20;;;;;;;4.38;2.50;;;13.40;76.50;;;;;;20814936;28;20446;-76
2021/04/25 20:26:22;;;;;;;;;;;13.30;75.90;;;;;;20830303;28;20045;-76
2021/04/25 20:36:23;;;;;;;4.30;2.33;;;12.90;76.10;;;;;;20827398;28;19917;-77
2021/04/25 20:46:26;;;;;;;4.82;2.28;;;12.60;76.80;;;;;;20824716;28;20491;-75
2021/04/25 20:56:29;;;;;;;5.05;2.15;;;12.50;75.80;;;;;;20798424;28;20042;-75
2021/04/25 21:06:29;;;;;;;;;;;12.50;76.30;;;;;;20842676;22;20495;-77
2021/04/25 21:16:30;;;;;;;3.85;1.95;;;12.30;76.60;;;;;;20825883;28;19908;-78
2021/04/25 21:26:31;;;;;;;5.60;2.17;;;12.20;77.50;;;;;;20884232;28;20527;-78
2021/04/25 21:36:32;;;;;;;4.50;2.47;;;12.10;77.30;;;;;;20872603;28;20067;-78
2021/04/25 21:46:33;;;;;;;8.77;2.63;;;12.10;77.40;;;;;;20863285;28;20056;-78
2021/04/25 21:56:34;;;;;;;6.35;2.45;;;12.00;77.60;;;;;;20856652;28;20029;-77
2021/04/25 22:06:35;;;;;;;5.80;2.13;;;11.90;77.60;;;;;;20861707;28;20072;-78
2021/04/25 22:16:36;;;;;;;6.45;2.72;;;12.00;77.50;;;;;;20842151;28;20387;-77
2021/04/25 22:26:36;;;;;;;4.30;2.70;;;11.90;77.30;;;;;;20832569;28;20026;-78
2021/04/25 22:36:37;;;;;;;6.88;2.72;;;11.80;77.30;;;;;;20833659;28;20034;-78
2021/04/25 22:46:38;;;;;;;5.68;2.92;;;11.60;77.40;;;;;;20824851;28;20441;-78
2021/04/25 22:56:39;;;;;;;6.07;3.10;;;11.40;78.00;;;;;;20847985;28;20025;-77
2021/04/25 23:06:40;;;;;;;5.18;2.58;;;11.10;79.20;;;;;;20828766;28;20063;-77
2021/04/25 23:16:40;;;;;;;10.32;2.65;;;10.80;81.20;;;;;;20827002;28;20025;-78
2021/04/25 23:26:41;;;;;;;6.22;3.13;;;10.90;79.90;;;;;;20843146;28;20034;-77
2021/04/25 23:36:42;;;;;;;5.40;2.63;;;10.70;80.10;;;;;;20842016;28;20060;-78
2021/04/25 23:46:43;;;;;;;6.50;2.78;;;10.70;79.80;;;;;;20839325;28;20029;-77
2021/04/25 23:56:44;;;;;;;10.20;2.40;;;10.50;80.20;;;;;;20845155;28;20033;-78
